Stantonville, Tennessee
Current Conditions -  °F | °C
As of 12:35 PM on Saturday 25 Oct 2014 (Local Time) from KSNH Reporting Station
Few Clouds Few Clouds  
Wind Chill: 75°   Ceiling: Unl
Heat Index: 75°   Visibility: 10mi
Dew Point: 63°   Wind: 5mph
Humidity: 65%   Direction: NA
Pressure: 30.07"   Gusts: NA
Location:  35.16°N, 88.43°W
Report Text: KSNH 251735Z AUTO VRB04KT 10SM FEW050 24/17 A3007 RMK
Loading
Personal Weather Stations






























Interactive Weather Map
Tropical Storm Tracking
New forecast layout! Learn more

10-Day Weather Forecast

Advertisements
Track Severe Weather on mobile